Аэропорт: Емельяново. Красноярск

ICAO: UNKL

METAR:
2018/11/19 10:00
UNKL 191000Z 27005MPS 9999 -SHSN SCT014CB M12/M15 Q1027 R29/450150 NOSIG RMK QFE744
METAR:
2018/11/19 09:21
TAF UNKL 190800Z 1909/2009 27003G08MPS 7000 -SHSN SCT020CB 
      TEMPO 1909/1918 29008G13MPS 3100 -SHSN BKN015CB 
     FM191800 VRB01MPS 3100 -SN BR SCT011 
     FM200200 22003G10MPS 3100 -SN BKN011